createdAt,value
2018-04-13T00:00:42.284Z,66.32
2018-04-13T00:03:09.868Z,66.73
2018-04-13T00:05:37.349Z,67.14
2018-04-13T00:08:04.837Z,67.91
2018-04-13T00:10:32.327Z,68.37
2018-04-13T00:12:59.830Z,68.05
2018-04-13T00:15:27.354Z,68.40
2018-04-13T00:17:54.843Z,68.66
2018-04-13T00:20:22.414Z,68.80
2018-04-13T00:22:49.905Z,69.03
2018-04-13T00:25:17.385Z,69.49
2018-04-13T00:27:44.892Z,69.63
2018-04-13T00:30:12.363Z,69.93
2018-04-13T00:32:39.835Z,70.21
2018-04-13T00:35:07.312Z,70.22
2018-04-13T00:37:34.810Z,70.34
2018-04-13T00:40:02.316Z,70.51
2018-04-13T00:42:29.887Z,70.58
2018-04-13T00:44:57.357Z,70.64
2018-04-13T00:47:24.985Z,70.53
2018-04-13T00:49:52.438Z,70.20
2018-04-13T00:52:19.931Z,70.03
2018-04-13T00:54:47.442Z,70.40
2018-04-13T00:57:14.957Z,70.77
2018-04-13T00:59:42.463Z,71.05
2018-04-13T01:02:09.994Z,71.29
2018-04-13T01:04:37.510Z,71.53
2018-04-13T01:07:05.018Z,71.31
2018-04-13T01:09:32.564Z,71.23
2018-04-13T01:12:00.081Z,71.12
2018-04-13T01:14:27.592Z,70.90
2018-04-13T01:16:55.132Z,70.61
2018-04-13T01:19:22.636Z,70.44
2018-04-13T01:21:50.138Z,70.26
2018-04-13T01:24:17.780Z,70.04
2018-04-13T01:26:45.234Z,70.01
2018-04-13T01:29:12.724Z,70.10
2018-04-13T01:31:40.210Z,70.34
2018-04-13T01:34:07.695Z,70.51
2018-04-13T01:36:35.204Z,70.78
2018-04-13T01:39:02.778Z,71.04
2018-04-13T01:41:30.248Z,71.80
2018-04-13T01:43:57.730Z,72.13
2018-04-13T01:46:25.233Z,72.45
2018-04-13T01:48:52.748Z,72.79
2018-04-13T01:51:20.296Z,73.20
2018-04-13T01:53:47.783Z,73.23
2018-04-13T01:56:15.271Z,73.06
2018-04-13T01:58:42.758Z,72.93
2018-04-13T02:01:10.248Z,73.31
2018-04-13T02:03:37.714Z,72.92
2018-04-13T02:06:05.212Z,73.05
2018-04-13T02:08:32.721Z,73.13
2018-04-13T02:11:00.217Z,73.12
2018-04-13T02:13:27.689Z,73.01
2018-04-13T02:15:55.192Z,72.83
2018-04-13T02:18:22.684Z,72.80
2018-04-13T02:20:50.164Z,73.04
2018-04-13T02:23:17.668Z,73.00
2018-04-13T02:25:45.163Z,73.00
2018-04-13T02:28:12.670Z,72.89
2018-04-13T02:30:40.169Z,72.64
2018-04-13T02:33:07.661Z,72.38
2018-04-13T02:35:35.145Z,72.22
2018-04-13T02:38:02.648Z,72.11
2018-04-13T02:40:30.160Z,72.39
2018-04-13T02:42:57.648Z,72.49
2018-04-13T02:45:25.138Z,72.87
2018-04-13T02:47:52.666Z,72.93
2018-04-13T02:50:20.151Z,72.98
2018-04-13T02:52:47.665Z,72.78
2018-04-13T02:55:15.244Z,73.02
2018-04-13T02:57:42.730Z,72.99
2018-04-13T03:00:10.211Z,73.11
2018-04-13T03:02:37.701Z,73.27
2018-04-13T03:05:05.207Z,73.97
2018-04-13T03:07:32.701Z,73.87
2018-04-13T03:10:00.292Z,73.99
2018-04-13T03:12:27.795Z,74.06
2018-04-13T03:14:55.278Z,74.00
2018-04-13T03:17:22.820Z,73.78
2018-04-13T03:19:50.316Z,74.23
2018-04-13T03:22:18.624Z,73.99
2018-04-13T03:24:46.227Z,74.19
2018-04-13T03:27:13.730Z,74.41
2018-04-13T03:29:41.214Z,74.47
2018-04-13T03:32:08.708Z,74.66
2018-04-13T03:34:36.281Z,74.85
2018-04-13T03:37:03.768Z,75.19
2018-04-13T03:39:31.272Z,74.76
2018-04-13T03:41:58.785Z,74.61
2018-04-13T03:44:26.258Z,74.54
2018-04-13T03:46:53.764Z,74.50
2018-04-13T03:49:21.257Z,74.28
2018-04-13T03:51:48.748Z,74.43
2018-04-13T03:54:16.235Z,74.99
2018-04-13T03:56:43.729Z,74.52
2018-04-13T03:59:11.193Z,74.20
2018-04-13T04:01:38.662Z,73.91
2018-04-13T04:04:06.174Z,73.51
2018-04-13T04:06:33.669Z,73.38
2018-04-13T04:09:01.228Z,73.01
2018-04-13T04:11:28.717Z,72.70
2018-04-13T04:13:56.203Z,72.21
2018-04-13T04:16:23.703Z,71.82
2018-04-13T04:18:51.271Z,71.61
2018-04-13T04:21:31.484Z,71.47
2018-04-13T04:24:10.871Z,71.13
2018-04-13T04:26:48.056Z,70.91
2018-04-13T04:29:15.592Z,70.26
2018-04-13T04:31:43.148Z,70.07
2018-04-13T04:34:10.657Z,71.09
2018-04-13T04:36:38.138Z,71.47
2018-04-13T04:39:06.404Z,71.42
2018-04-13T04:41:33.986Z,71.54
2018-04-13T04:44:01.473Z,71.40
2018-04-13T04:46:28.958Z,71.13
2018-04-13T04:48:56.540Z,70.29
2018-04-13T04:51:24.062Z,70.18
2018-04-13T04:53:51.553Z,71.76
2018-04-13T04:56:19.043Z,71.58
2018-04-13T04:58:46.522Z,71.88
2018-04-13T05:01:14.008Z,71.26
2018-04-13T05:03:41.579Z,70.64
2018-04-13T05:06:09.034Z,70.56
2018-04-13T05:08:36.551Z,70.53
2018-04-13T05:11:04.062Z,70.78
2018-04-13T05:13:31.629Z,70.04
2018-04-13T05:15:59.118Z,70.61
2018-04-13T05:18:26.607Z,70.59
2018-04-13T05:20:54.165Z,70.68
2018-04-13T05:23:21.647Z,69.96
2018-04-13T05:25:49.166Z,69.87
2018-04-13T05:28:16.661Z,69.92
2018-04-13T05:30:44.164Z,68.72
2018-04-13T05:33:11.710Z,68.98
2018-04-13T05:35:39.179Z,68.37
2018-04-13T05:38:06.711Z,68.50
2018-04-13T05:40:34.225Z,68.38
2018-04-13T05:43:01.717Z,67.23
2018-04-13T05:45:29.213Z,67.40
2018-04-13T05:47:56.690Z,67.10
2018-04-13T05:50:24.172Z,66.55
2018-04-13T05:52:51.687Z,67.04
2018-04-13T05:55:19.180Z,66.51
2018-04-13T05:57:47.120Z,66.41
2018-04-13T06:00:14.659Z,66.52
2018-04-13T06:02:42.135Z,66.34
2018-04-13T06:05:09.637Z,66.06
2018-04-13T06:07:37.162Z,66.25
2018-04-13T06:10:04.659Z,65.78
2018-04-13T06:12:32.346Z,65.80
2018-04-13T06:15:00.005Z,65.80
2018-04-13T06:17:27.497Z,65.11
2018-04-13T06:19:55.228Z,65.14
2018-04-13T06:22:23.881Z,64.90
2018-04-13T06:24:52.619Z,64.84
2018-04-13T06:27:20.110Z,64.62
2018-04-13T06:29:47.672Z,63.04
2018-04-13T06:32:15.181Z,63.14
2018-04-13T06:34:42.791Z,62.39
2018-04-13T06:37:10.314Z,62.04
2018-04-13T06:39:37.924Z,61.18
2018-04-13T06:42:05.415Z,60.53
2018-04-13T06:44:34.126Z,60.99
2018-04-13T06:47:01.655Z,61.92
2018-04-13T06:49:29.147Z,61.87
2018-04-13T06:51:56.650Z,61.00
2018-04-13T06:54:24.144Z,61.97
2018-04-13T06:56:51.638Z,61.18
2018-04-13T06:59:19.138Z,60.89
2018-04-13T07:01:46.630Z,60.85
2018-04-13T07:04:14.121Z,61.05
2018-04-13T07:06:41.781Z,59.80
2018-04-13T07:09:09.394Z,59.07
2018-04-13T07:11:36.887Z,59.14
2018-04-13T07:14:04.415Z,59.72
2018-04-13T07:16:32.057Z,59.71
2018-04-13T07:18:59.622Z,59.28
2018-04-13T07:21:27.190Z,59.92
2018-04-13T07:23:54.680Z,59.12
2018-04-13T07:26:22.177Z,58.43
2018-04-13T07:28:49.701Z,58.70
2018-04-13T07:31:17.315Z,58.57
2018-04-13T07:33:44.801Z,58.32
2018-04-13T07:36:12.506Z,58.53
2018-04-13T07:38:40.211Z,58.40
2018-04-13T07:41:07.729Z,59.00
2018-04-13T07:43:35.232Z,57.57
2018-04-13T07:46:02.796Z,57.95
2018-04-13T07:48:30.260Z,56.83
2018-04-13T07:50:57.770Z,57.18
2018-04-13T07:53:25.263Z,57.34
2018-04-13T07:55:52.735Z,56.94
2018-04-13T07:58:20.301Z,56.42
2018-04-13T08:00:47.799Z,57.31
2018-04-13T08:03:15.347Z,56.90
2018-04-13T08:05:42.830Z,56.68
2018-04-13T08:08:10.511Z,56.32
2018-04-13T08:10:37.930Z,56.09
2018-04-13T08:13:05.645Z,55.94
2018-04-13T08:15:33.148Z,55.75
2018-04-13T08:18:00.715Z,55.60
2018-04-13T08:20:28.450Z,57.08
2018-04-13T08:22:55.936Z,56.18
2018-04-13T08:25:23.559Z,55.79
2018-04-13T08:27:51.152Z,56.29
2018-04-13T08:30:18.703Z,55.77
2018-04-13T08:32:46.253Z,55.84
2018-04-13T08:35:13.756Z,54.90
2018-04-13T08:37:41.596Z,55.49
2018-04-13T08:40:09.136Z,55.18
2018-04-13T08:42:37.068Z,54.93
2018-04-13T08:45:04.574Z,54.73
2018-04-13T08:47:32.070Z,54.48
2018-04-13T08:49:59.569Z,55.94
2018-04-13T08:52:27.200Z,56.39
2018-04-13T08:54:54.765Z,56.54
2018-04-13T08:57:22.234Z,56.12
2018-04-13T08:59:49.755Z,55.92
2018-04-13T09:02:17.247Z,56.45
2018-04-13T09:04:44.789Z,57.09
2018-04-13T09:07:12.288Z,55.80
2018-04-13T09:09:39.793Z,55.55
2018-04-13T09:12:07.372Z,55.78
2018-04-13T09:14:39.497Z,56.36
2018-04-13T09:17:07.063Z,56.91
2018-04-13T09:19:34.567Z,57.17
2018-04-13T09:22:02.157Z,57.01
2018-04-13T09:24:29.964Z,56.78
2018-04-13T09:26:57.774Z,56.91
2018-04-13T09:29:25.343Z,57.09
2018-04-13T09:31:52.870Z,57.05
2018-04-13T09:34:20.384Z,57.18
2018-04-13T09:36:47.870Z,56.72
2018-04-13T09:39:15.411Z,56.98
2018-04-13T09:41:43.869Z,56.55
2018-04-13T09:44:11.355Z,56.99
2018-04-13T09:46:38.887Z,56.78
2018-04-13T09:49:06.373Z,57.02
2018-04-13T09:51:33.889Z,56.86
2018-04-13T09:54:01.391Z,58.48
2018-04-13T09:56:30.037Z,63.20
2018-04-13T09:58:57.587Z,65.80
2018-04-13T10:01:25.163Z,65.47
2018-04-13T10:04:05.172Z,64.82
2018-04-13T10:06:32.666Z,64.33
2018-04-13T10:09:00.137Z,63.44
2018-04-13T10:11:27.611Z,62.74
2018-04-13T10:13:55.084Z,63.75
2018-04-13T10:16:22.630Z,62.99
2018-04-13T10:18:50.112Z,64.44
2018-04-13T10:21:17.603Z,64.54
2018-04-13T10:23:45.092Z,68.09
2018-04-13T10:26:18.580Z,70.21
2018-04-13T10:28:46.190Z,75.88
2018-04-13T10:31:13.693Z,78.89
2018-04-13T10:33:43.416Z,84.07
2018-04-13T10:36:11.070Z,84.80
2018-04-13T10:38:38.578Z,85.41
2018-04-13T10:41:06.096Z,84.36
2018-04-13T10:43:33.651Z,84.49
2018-04-13T10:46:01.154Z,84.37
2018-04-13T10:48:28.710Z,85.57
2018-04-13T10:50:56.201Z,86.91
2018-04-13T10:53:23.708Z,85.48
2018-04-13T10:55:51.674Z,86.28
2018-04-13T10:58:19.551Z,88.04
2018-04-13T11:00:47.072Z,89.27
2018-04-13T11:03:14.657Z,89.47
2018-04-13T11:05:42.144Z,89.33
2018-04-13T11:08:09.791Z,92.28
2018-04-13T11:10:37.343Z,92.33
2018-04-13T11:13:04.842Z,91.55
2018-04-13T11:15:32.341Z,93.37
2018-04-13T11:17:59.932Z,96.10
2018-04-13T11:20:27.565Z,98.52
2018-04-13T11:22:55.104Z,97.86
2018-04-13T11:25:22.573Z,98.04
2018-04-13T11:27:50.043Z,97.96
2018-04-13T11:30:17.588Z,98.65
2018-04-13T11:32:45.216Z,98.08
2018-04-13T11:35:13.030Z,97.45
2018-04-13T11:37:40.531Z,96.89
2018-04-13T11:43:20.786Z,94.51
2018-04-13T11:45:48.296Z,94.51
2018-04-13T11:48:15.783Z,95.13
2018-04-13T11:50:43.328Z,93.39
2018-04-13T11:53:10.820Z,92.79
2018-04-13T11:55:38.316Z,92.60
2018-04-13T11:58:05.823Z,93.39
2018-04-13T12:00:33.348Z,91.10
2018-04-13T12:03:00.858Z,91.13
2018-04-13T12:05:28.352Z,90.43
2018-04-13T12:07:55.880Z,93.68
2018-04-13T12:10:23.381Z,90.06
2018-04-13T12:12:50.869Z,91.08
2018-04-13T12:15:18.741Z,92.09
2018-04-13T12:17:46.249Z,88.84
2018-04-13T12:20:13.727Z,88.57
2018-04-13T12:22:41.215Z,89.19
2018-04-13T12:25:08.711Z,88.35
2018-04-13T12:27:36.232Z,89.47
2018-04-13T12:30:03.784Z,89.98
2018-04-13T12:32:31.282Z,90.62
2018-04-13T12:34:58.854Z,89.52
2018-04-13T12:37:26.385Z,86.99
2018-04-13T12:39:53.863Z,87.89
2018-04-13T12:42:21.352Z,87.08
2018-04-13T12:44:48.917Z,85.36
2018-04-13T12:47:16.389Z,85.32
2018-04-13T12:49:43.894Z,84.51
2018-04-13T12:52:11.388Z,84.90
2018-04-13T12:54:39.176Z,84.53
2018-04-13T12:57:06.513Z,85.16
2018-04-13T12:59:34.037Z,84.16
2018-04-13T13:02:01.533Z,83.94
2018-04-13T13:04:29.042Z,83.48
2018-04-13T13:06:56.532Z,83.10
2018-04-13T13:09:24.034Z,84.41
2018-04-13T13:11:51.534Z,82.10
2018-04-13T13:14:19.054Z,82.76
2018-04-13T13:16:46.540Z,82.94
2018-04-13T13:19:14.077Z,81.17
2018-04-13T13:21:41.572Z,81.25
2018-04-13T13:24:09.133Z,83.10
2018-04-13T13:26:36.617Z,77.89
2018-04-13T13:29:04.131Z,78.69
2018-04-13T13:31:31.655Z,78.45
2018-04-13T13:33:59.182Z,79.34
2018-04-13T13:36:26.672Z,78.67
2018-04-13T13:38:54.162Z,78.45
2018-04-13T13:41:21.647Z,79.90
2018-04-13T13:43:49.147Z,77.93
2018-04-13T13:46:16.642Z,76.94
2018-04-13T13:48:44.207Z,78.31
2018-04-13T13:51:11.681Z,75.94
2018-04-13T13:53:39.170Z,76.12
2018-04-13T13:56:06.765Z,76.58
2018-04-13T13:58:34.248Z,77.11
2018-04-13T14:01:01.739Z,77.70
2018-04-13T14:03:29.239Z,77.34
2018-04-13T14:05:56.780Z,77.68
2018-04-13T14:08:24.296Z,76.76
2018-04-13T14:10:51.791Z,76.04
2018-04-13T14:13:19.377Z,77.75
2018-04-13T14:15:46.906Z,75.34
2018-04-13T14:18:14.499Z,73.97
2018-04-13T14:20:41.993Z,73.23
2018-04-13T14:23:09.529Z,73.72
2018-04-13T14:25:37.025Z,74.34
2018-04-13T14:28:04.554Z,73.99
2018-04-13T14:30:32.078Z,73.46
2018-04-13T14:32:59.519Z,73.09
2018-04-13T14:35:27.019Z,73.37
2018-04-13T14:37:54.527Z,74.31
2018-04-13T14:40:22.005Z,74.99
2018-04-13T14:42:49.536Z,74.71
2018-04-13T14:45:17.082Z,74.83
2018-04-13T14:47:44.596Z,73.76
2018-04-13T14:50:12.128Z,72.21
2018-04-13T14:52:39.782Z,72.52
2018-04-13T14:55:10.530Z,73.14
2018-04-13T14:57:38.046Z,71.54
2018-04-13T15:00:05.541Z,71.98
2018-04-13T15:02:33.069Z,73.40
2018-04-13T15:05:00.553Z,72.74
2018-04-13T15:07:28.072Z,70.87
2018-04-13T15:09:55.733Z,72.26
2018-04-13T15:12:23.220Z,71.71
2018-04-13T15:14:53.768Z,71.60
2018-04-13T15:17:26.529Z,69.52
2018-04-13T15:19:54.095Z,70.47
2018-04-13T15:22:21.636Z,67.59
2018-04-13T15:24:49.129Z,68.01
2018-04-13T15:27:16.669Z,66.12
2018-04-13T15:29:44.262Z,65.24
2018-04-13T15:32:12.224Z,63.84
2018-04-13T15:34:39.830Z,63.81
2018-04-13T15:37:07.333Z,66.54
2018-04-13T15:39:34.902Z,64.70
2018-04-13T15:42:02.489Z,63.17
2018-04-13T15:44:30.021Z,63.63
2018-04-13T15:46:57.623Z,63.95
2018-04-13T15:49:25.113Z,63.91
2018-04-13T15:51:52.889Z,62.78
2018-04-13T15:54:20.400Z,64.67
2018-04-13T15:56:47.896Z,64.47
2018-04-13T15:59:15.381Z,63.40
2018-04-13T16:01:43.093Z,62.95
2018-04-13T16:04:11.485Z,62.53
2018-04-13T16:06:38.951Z,61.94
2018-04-13T16:09:06.440Z,61.74
2018-04-13T16:11:33.915Z,59.04
2018-04-13T16:14:01.424Z,60.15
2018-04-13T16:16:28.967Z,57.55
2018-04-13T16:18:56.437Z,56.73
2018-04-13T16:21:23.925Z,55.31
2018-04-13T16:23:51.407Z,55.03
2018-04-13T16:26:18.968Z,51.47
2018-04-13T16:28:46.470Z,51.11
2018-04-13T16:31:14.465Z,52.08
2018-04-13T16:33:42.040Z,54.05
2018-04-13T16:36:09.512Z,53.73
2018-04-13T16:38:37.073Z,53.37
2018-04-13T16:41:04.682Z,54.00
2018-04-13T16:43:32.180Z,54.26
2018-04-13T16:45:59.735Z,53.50
2018-04-13T16:48:27.241Z,55.66
2018-04-13T16:50:54.749Z,54.14
2018-04-13T16:53:22.350Z,54.48
2018-04-13T16:55:49.835Z,54.90
2018-04-13T16:58:17.342Z,55.70
2018-04-13T17:00:44.888Z,55.76
2018-04-13T17:03:12.373Z,57.33
2018-04-13T17:05:39.851Z,58.49
2018-04-13T17:08:07.374Z,59.97
2018-04-13T17:10:34.893Z,60.39
2018-04-13T17:13:02.446Z,61.54
2018-04-13T17:15:29.926Z,62.57
2018-04-13T17:17:58.564Z,63.27
2018-04-13T17:20:26.070Z,63.79
2018-04-13T17:22:53.567Z,64.42
2018-04-13T17:25:21.265Z,65.07
2018-04-13T17:27:50.116Z,66.93
2018-04-13T17:30:17.578Z,66.92
2018-04-13T17:32:45.069Z,68.02
2018-04-13T17:35:12.548Z,69.42
2018-04-13T17:37:40.059Z,70.20
2018-04-13T17:40:10.307Z,70.00
2018-04-13T17:45:35.655Z,70.82
2018-04-13T17:48:03.238Z,71.94
2018-04-13T17:50:30.752Z,72.23
2018-04-13T17:52:58.417Z,72.28
2018-04-13T17:55:25.939Z,73.31
2018-04-13T17:57:53.446Z,74.12
2018-04-13T18:00:21.017Z,74.48
2018-04-13T18:02:48.656Z,75.47
2018-04-13T18:05:17.991Z,75.64
2018-04-13T18:07:46.294Z,76.45
2018-04-13T18:10:23.500Z,76.68
2018-04-13T18:12:52.025Z,77.72
2018-04-13T18:15:19.560Z,77.94
2018-04-13T18:17:47.068Z,78.36
2018-04-13T18:20:14.556Z,78.43
2018-04-13T18:22:42.094Z,79.10
2018-04-13T18:25:11.001Z,79.18
2018-04-13T18:27:38.562Z,79.65
2018-04-13T18:30:06.167Z,80.08
2018-04-13T18:32:34.176Z,80.25
2018-04-13T18:35:06.516Z,80.35
2018-04-13T18:37:36.925Z,80.19
2018-04-13T18:40:04.513Z,80.02
2018-04-13T18:42:37.902Z,80.07
2018-04-13T18:45:05.429Z,80.49
2018-04-13T18:47:38.367Z,81.01
2018-04-13T18:50:17.391Z,80.49
2018-04-13T18:52:45.508Z,80.43
2018-04-13T18:55:13.038Z,80.66
2018-04-13T18:57:40.541Z,80.30
2018-04-13T19:00:08.156Z,80.43
2018-04-13T19:02:37.191Z,80.67
2018-04-13T19:05:07.457Z,80.87
2018-04-13T19:07:35.664Z,80.88
2018-04-13T19:10:03.156Z,80.82
2018-04-13T19:12:30.887Z,81.13
2018-04-13T19:17:46.665Z,81.03
2018-04-13T19:23:09.724Z,80.75
2018-04-13T19:25:37.265Z,80.73
2018-04-13T19:28:04.743Z,81.20
2018-04-13T19:30:32.222Z,81.54
2018-04-13T19:32:59.732Z,83.61
2018-04-13T19:35:27.214Z,80.97
2018-04-13T19:37:54.768Z,81.10
2018-04-13T19:40:22.267Z,80.81
2018-04-13T19:42:50.275Z,80.56
2018-04-13T19:45:17.847Z,80.71
2018-04-13T19:47:45.283Z,80.79
2018-04-13T19:50:12.791Z,80.61
2018-04-13T19:52:40.333Z,80.53
2018-04-13T19:55:07.853Z,81.55
2018-04-13T19:57:35.351Z,81.19
2018-04-13T20:00:02.964Z,80.59
2018-04-13T20:02:30.533Z,80.83
2018-04-13T20:04:58.258Z,80.89
2018-04-13T20:07:25.753Z,80.99
2018-04-13T20:09:53.363Z,80.69
2018-04-13T20:12:20.857Z,80.23
2018-04-13T20:14:48.376Z,79.84
2018-04-13T20:17:15.908Z,80.10
2018-04-13T20:19:43.381Z,79.76
2018-04-13T20:22:10.857Z,79.72
2018-04-13T20:24:38.433Z,79.61
2018-04-13T20:27:06.004Z,79.78
2018-04-13T20:29:34.040Z,80.21
2018-04-13T20:32:01.642Z,81.10
2018-04-13T20:34:29.154Z,79.65
2018-04-13T20:36:56.648Z,79.53
2018-04-13T20:39:24.906Z,79.17
2018-04-13T20:41:52.605Z,79.33
2018-04-13T20:44:20.121Z,78.38
2018-04-13T20:46:47.617Z,78.72
2018-04-13T20:49:15.121Z,79.40
2018-04-13T20:51:42.633Z,78.97
2018-04-13T20:54:10.136Z,78.46
2018-04-13T20:56:37.654Z,79.20
2018-04-13T20:59:05.190Z,80.19
2018-04-13T21:01:32.860Z,79.85
2018-04-13T21:04:00.393Z,80.22
2018-04-13T21:06:27.887Z,80.51
2018-04-13T21:08:55.405Z,80.76
2018-04-13T21:11:22.939Z,81.15
2018-04-13T21:13:51.291Z,81.11
2018-04-13T21:16:18.777Z,81.31
2018-04-13T21:18:46.373Z,81.65
2018-04-13T21:21:13.846Z,81.35
2018-04-13T21:23:41.349Z,81.72
2018-04-13T21:26:08.843Z,81.58
2018-04-13T21:28:36.363Z,81.84
2018-04-13T21:31:03.849Z,81.92
2018-04-13T21:33:31.357Z,81.74
2018-04-13T21:35:58.837Z,81.68
2018-04-13T21:38:26.363Z,81.94
2018-04-13T21:40:53.936Z,81.96
2018-04-13T21:43:21.934Z,82.03
2018-04-13T21:45:49.463Z,82.16
2018-04-13T21:48:16.957Z,80.95
2018-04-13T21:50:44.440Z,80.78
2018-04-13T21:53:11.906Z,80.93
2018-04-13T21:55:39.389Z,81.52
2018-04-13T21:58:06.939Z,81.42
2018-04-13T22:00:34.466Z,81.82
2018-04-13T22:03:01.961Z,82.39
2018-04-13T22:05:29.462Z,82.68
2018-04-13T22:07:57.003Z,82.77
2018-04-13T22:10:24.498Z,82.89
2018-04-13T22:13:03.904Z,83.18
2018-04-13T22:15:31.464Z,83.44
2018-04-13T22:17:58.967Z,83.23
2018-04-13T22:20:26.524Z,83.59
2018-04-13T22:22:54.007Z,84.26
2018-04-13T22:25:21.508Z,84.45
2018-04-13T22:27:49.108Z,84.50
2018-04-13T22:30:16.610Z,84.39
2018-04-13T22:32:44.167Z,84.01
2018-04-13T22:35:11.646Z,83.97
2018-04-13T22:37:39.666Z,83.92
2018-04-13T22:40:07.337Z,83.61
2018-04-13T22:42:34.914Z,83.69
2018-04-13T22:45:02.409Z,83.68
2018-04-13T22:47:29.926Z,83.58
2018-04-13T22:49:57.461Z,83.65
2018-04-13T22:52:25.192Z,83.67
2018-04-13T22:54:52.677Z,83.81
2018-04-13T22:57:20.164Z,84.00
2018-04-13T22:59:47.675Z,83.82
2018-04-13T23:02:15.553Z,83.83
2018-04-13T23:04:43.074Z,83.35
2018-04-13T23:07:10.570Z,83.45
2018-04-13T23:09:38.049Z,83.57
2018-04-13T23:12:05.558Z,83.72
2018-04-13T23:14:33.057Z,83.77
2018-04-13T23:17:00.554Z,84.04
2018-04-13T23:19:28.079Z,84.33
2018-04-13T23:21:55.586Z,84.44
2018-04-13T23:24:23.195Z,84.21
2018-04-13T23:26:50.706Z,83.98
2018-04-13T23:29:18.180Z,83.36
2018-04-13T23:31:45.654Z,82.77
2018-04-13T23:34:13.154Z,82.84
2018-04-13T23:36:40.644Z,82.98
2018-04-13T23:39:08.129Z,83.21
2018-04-13T23:41:35.646Z,83.21
2018-04-13T23:44:03.146Z,82.82
2018-04-13T23:46:30.639Z,83.05
2018-04-13T23:48:58.125Z,83.06
2018-04-13T23:51:25.668Z,82.79
2018-04-13T23:53:53.160Z,82.26
2018-04-13T23:56:20.649Z,81.80
2018-04-13T23:58:48.148Z,81.99
